Time;durP1;ratioP1;P1;durP2;ratioP2;P2;SDS_P1;SDS_P2;PMS_P1;PMS_P2;Temp;Humidity;BMP_temperature;BMP_pressure;BME280_temperature;BME280_humidity;BME280_pressure;Samples;Min_cycle;Max_cycle;Signal;HPM_P1;HPM_P2
2021/01/05 00:02:11;;;;;;;13.00;2.47;;;;;;;13.06;36.85;102768.78;5072679;28;20024;-77
2021/01/05 00:04:37;;;;;;;10.88;2.78;;;;;;;13.32;36.26;102764.03;5072712;28;20029;-77
2021/01/05 00:07:03;;;;;;;9.40;2.80;;;;;;;13.39;36.65;102763.72;5072490;28;20028;-77
2021/01/05 00:09:29;;;;;;;9.05;3.55;;;;;;;13.05;35.98;102764.38;5054526;28;20048;-77
2021/01/05 00:12:08;;;;;;;13.68;2.95;;;;;;;13.32;36.87;102761.28;5072627;28;20060;-77
2021/01/05 00:14:34;;;;;;;11.38;2.92;;;;;;;13.30;37.40;102755.28;5054605;28;20032;-77
2021/01/05 00:17:00;;;;;;;13.05;4.32;;;;;;;12.80;37.45;102756.25;5072590;28;20024;-77
2021/01/05 00:19:26;;;;;;;11.15;3.53;;;;;;;12.84;36.89;102754.59;5072434;28;20375;-77
2021/01/05 00:21:53;;;;;;;13.23;2.95;;;;;;;12.83;37.07;102758.44;5072213;28;20078;-77
2021/01/05 00:24:19;;;;;;;12.27;3.88;;;;;;;13.02;36.60;102762.22;5072463;28;20062;-77
2021/01/05 00:26:45;;;;;;;12.98;2.75;;;;;;;13.10;36.60;102747.91;5072364;28;20483;-77
2021/01/05 00:29:11;;;;;;;10.75;3.30;;;;;;;13.10;36.63;102753.41;5054512;28;20021;-77
2021/01/05 00:31:38;;;;;;;8.93;2.70;;;;;;;12.88;36.51;102748.25;5072291;28;20024;-76
2021/01/05 00:34:05;;;;;;;11.13;2.45;;;;;;;13.20;36.03;102745.13;5072277;28;20032;-77
2021/01/05 00:36:31;;;;;;;7.00;2.30;;;;;;;13.36;35.90;102745.88;5072395;28;20491;-76
2021/01/05 00:38:57;;;;;;;14.52;2.72;;;;;;;13.16;36.14;102744.03;5040237;28;20077;-77
2021/01/05 00:41:22;;;;;;;5.10;2.15;;;;;;;13.13;35.94;102739.09;5031133;28;20072;-76
2021/01/05 00:43:48;;;;;;;10.35;2.47;;;;;;;13.26;35.96;102737.72;5032123;28;20030;-76
2021/01/05 00:46:15;;;;;;;7.78;2.30;;;;;;;13.52;35.85;102732.88;5032158;28;20495;-76
2021/01/05 00:48:42;;;;;;;9.00;3.53;;;;;;;13.36;35.81;102723.09;5032300;28;20022;-76
2021/01/05 00:51:09;;;;;;;8.95;2.63;;;;;;;13.60;35.55;102737.75;5030913;28;20032;-76
2021/01/05 00:53:34;;;;;;;5.60;1.73;;;;;;;13.43;35.59;102734.59;5032167;28;20033;-75
2021/01/05 00:56:00;;;;;;;6.07;1.95;;;;;;;13.53;34.82;102727.13;5032584;28;20041;-76
2021/01/05 00:58:26;;;;;;;8.05;2.10;;;;;;;13.45;35.84;102724.13;5034892;28;20030;-77
2021/01/05 01:00:51;;;;;;;6.65;2.63;;;;;;;13.49;36.75;102719.72;5036168;28;20091;-76
2021/01/05 01:03:18;;;;;;;10.27;3.05;;;;;;;13.07;37.06;102729.25;5035975;28;20095;-77
2021/01/05 01:05:44;;;;;;;7.28;1.52;;;;;;;13.15;36.57;102725.09;5036060;28;20112;-77
2021/01/05 01:08:10;;;;;;;9.10;2.00;;;;;;;13.10;36.81;102728.69;5034547;28;20112;-77
2021/01/05 01:10:36;;;;;;;8.10;2.72;;;;;;;13.34;37.08;102723.38;5036013;28;20033;-77
2021/01/05 01:13:02;;;;;;;9.43;2.65;;;;;;;13.32;37.79;102725.59;5035947;28;20087;-77
2021/01/05 01:15:28;;;;;;;5.07;1.98;;;;;;;13.46;37.57;102715.63;5035767;28;20033;-77
2021/01/05 01:17:53;;;;;;;9.50;2.30;;;;;;;13.54;37.25;102722.44;5035908;28;20025;-77
2021/01/05 01:20:19;;;;;;;7.53;2.45;;;;;;;13.46;37.15;102721.13;5034477;28;20029;-76
2021/01/05 01:22:44;;;;;;;10.73;2.55;;;;;;;13.81;38.45;102714.53;5035845;28;20065;-77
2021/01/05 01:25:10;;;;;;;13.32;2.92;;;;;;;13.96;38.33;102724.59;5035646;28;20029;-78
2021/01/05 01:27:36;;;;;;;11.90;3.13;;;;;;;13.71;38.07;102722.88;5035717;28;20029;-77
2021/01/05 01:30:04;;;;;;;8.20;1.95;;;;;;;13.36;38.31;102723.09;5035523;28;20033;-77
2021/01/05 01:32:29;;;;;;;10.65;2.78;;;;;;;13.60;38.41;102719.38;5035362;28;20037;-77
2021/01/05 01:34:55;;;;;;;9.73;2.95;;;;;;;13.32;39.48;102726.41;5035621;28;20036;-77
2021/01/05 01:37:21;;;;;;;10.85;2.15;;;;;;;13.13;40.13;102719.06;5035486;28;20057;-77
2021/01/05 01:39:47;;;;;;;7.00;1.83;;;;;;;12.73;41.56;102724.44;5070042;28;20052;-77
2021/01/05 01:42:15;;;;;;;9.65;2.63;;;;;;;13.24;40.72;102713.28;5075316;28;20490;-77
2021/01/05 01:44:42;;;;;;;5.65;2.10;;;;;;;13.32;40.62;102720.13;5057473;28;20041;-77
2021/01/05 01:47:22;;;;;;;11.18;2.60;;;;;;;13.47;40.52;102717.28;5075268;28;20060;-77
2021/01/05 01:49:51;;;;;;;8.88;2.83;;;;;;;14.12;39.22;102725.28;5075376;28;20030;-77
2021/01/05 01:52:37;;;;;;;11.50;3.17;;;;;;;14.16;39.14;102731.84;5075077;28;20028;-77
2021/01/05 01:55:11;;;;;;;11.23;3.15;;;;;;;14.22;38.83;102721.63;5074775;28;20033;-78
2021/01/05 01:57:54;;;;;;;8.40;2.45;;;;;;;14.46;38.22;102721.69;5075063;28;20036;-77
2021/01/05 02:00:23;;;;;;;9.90;3.20;;;;;;;14.56;38.05;102722.41;5075083;28;20056;-77
2021/01/05 02:03:19;;;;;;;6.55;1.70;;;;;;;14.36;37.94;102715.16;5075057;28;20067;-77
2021/01/05 02:06:09;;;;;;;4.22;1.58;;;;;;;14.00;38.60;102719.34;5074917;28;20035;-77
2021/01/05 02:08:56;;;;;;;3.63;1.65;;;;;;;14.10;38.29;102722.00;5074297;28;20024;-77
2021/01/05 02:11:40;;;;;;;7.45;2.22;;;;;;;14.07;38.38;102722.59;5074689;28;20059;-77
2021/01/05 02:14:22;;;;;;;10.95;2.67;;;;;;;14.04;38.57;102712.97;5074845;28;20066;-77
2021/01/05 02:17:22;;;;;;;16.67;3.03;;;;;;;14.02;39.06;102730.88;5074799;28;20036;-77
2021/01/05 02:19:57;;;;;;;8.30;2.97;;;;;;;14.28;38.20;102732.28;5074699;28;20379;-77
2021/01/05 02:22:31;;;;;;;9.75;2.90;;;;;;;14.24;38.65;102727.66;5074649;28;20056;-77
2021/01/05 02:25:38;;;;;;;15.35;3.20;;;;;;;13.66;40.60;102728.38;5074662;28;20103;-77
2021/01/05 02:28:09;;;;;;;11.77;2.30;;;;;;;13.20;42.06;102738.84;5066160;28;20033;-77
2021/01/05 02:30:43;;;;;;;8.02;2.05;;;;;;;13.02;41.96;102726.53;5074520;28;20070;-76
2021/01/05 02:33:12;;;;;;;9.20;1.95;;;;;;;13.18;41.58;102736.34;5074296;28;20132;-77
2021/01/05 02:36:15;;;;;;;6.32;2.00;;;;;;;13.27;41.58;102740.16;5056556;28;20478;-77
2021/01/05 02:39:11;;;;;;;6.13;2.30;;;;;;;13.13;41.16;102741.03;5074172;28;20044;-77
2021/01/05 02:41:57;;;;;;;10.85;2.20;;;;;;;13.58;40.20;102731.75;5074082;28;20043;-77
2021/01/05 02:45:02;;;;;;;10.18;2.40;;;;;;;13.48;40.40;102735.38;5074268;28;20090;-77
2021/01/05 02:48:13;;;;;;;10.32;2.20;;;;;;;13.81;39.43;102738.44;5074255;28;20025;-77
2021/01/05 02:50:59;;;;;;;5.78;2.03;;;;;;;13.79;39.42;102727.75;5050479;28;20036;-77
2021/01/05 02:53:34;;;;;;;11.00;3.10;;;;;;;14.19;38.43;102733.19;5073985;28;20161;-77
2021/01/05 02:56:37;;;;;;;11.40;1.70;;;;;;;14.01;38.70;102723.72;5074056;28;20032;-77
2021/01/05 02:59:21;;;;;;;3.47;1.63;;;;;;;13.89;38.70;102713.91;5074045;28;20107;-76
2021/01/05 03:02:05;;;;;;;5.25;1.33;;;;;;;13.85;39.11;102717.56;5073956;28;20052;-76
2021/01/05 03:04:31;;;;;;;5.68;1.90;;;;;;;14.02;38.51;102725.38;5073543;28;20024;-78
2021/01/05 03:07:00;;;;;;;3.28;1.38;;;;;;;14.01;38.35;102710.00;5073820;28;20082;-76
2021/01/05 03:09:53;;;;;;;7.17;1.40;;;;;;;13.83;38.88;102720.59;5073723;28;20066;-77
2021/01/05 03:12:45;;;;;;;6.95;2.00;;;;;;;13.74;39.18;102725.03;5073624;28;20281;-77
2021/01/05 03:15:19;;;;;;;6.68;2.65;;;;;;;13.57;40.27;102727.34;5073625;28;20032;-77
2021/01/05 03:17:59;;;;;;;10.48;2.00;;;;;;;12.29;43.56;102745.38;5073383;28;20392;-77
2021/01/05 03:20:35;;;;;;;3.45;1.75;;;;;;;11.96;44.42;102739.38;5054500;28;20028;-77
2021/01/05 03:23:05;;;;;;;4.20;1.60;;;;;;;12.55;42.47;102738.78;5073431;28;20111;-77
2021/01/05 03:25:34;;;;;;;12.77;1.70;;;;;;;12.07;43.47;102743.75;5073501;28;20024;-76
2021/01/05 03:28:02;;;;;;;9.37;2.77;;;;;;;12.22;44.28;102741.00;5073014;28;20025;-76
2021/01/05 03:31:02;;;;;;;3.50;1.77;;;;;;;11.77;44.68;102754.66;5073339;28;20261;-77
2021/01/05 03:33:27;;;;;;;5.25;1.23;;;;;;;12.02;44.35;102757.47;5068195;28;20064;-77
2021/01/05 03:35:53;;;;;;;14.77;2.53;;;;;;;12.37;43.90;102764.00;5073227;28;20072;-77
2021/01/05 03:38:19;;;;;;;6.60;1.70;;;;;;;11.90;45.78;102765.94;5072912;28;20055;-77
2021/01/05 03:40:44;;;;;;;10.65;1.63;;;;;;;11.98;46.23;102771.97;5073097;28;20024;-77
2021/01/05 03:43:10;;;;;;;17.60;1.83;;;;;;;12.17;45.62;102771.16;5073157;28;20028;-77
2021/01/05 03:45:35;;;;;;;6.70;1.70;;;;;;;12.25;45.35;102758.00;5072955;28;20046;-77
2021/01/05 03:48:01;;;;;;;6.55;1.70;;;;;;;12.50;44.80;102763.44;5072651;28;20073;-77
2021/01/05 03:50:26;;;;;;;10.55;2.40;;;;;;;12.47;44.54;102753.06;5072591;28;20379;-77
2021/01/05 03:52:52;;;;;;;3.77;1.60;;;;;;;12.55;43.97;102743.44;5072762;28;20039;-77
2021/01/05 03:55:18;;;;;;;3.80;1.30;;;;;;;12.89;43.29;102740.84;5072868;28;20025;-77
2021/01/05 03:57:45;;;;;;;5.75;1.75;;;;;;;12.95;43.61;102742.47;5054915;28;20020;-77
2021/01/05 04:00:18;;;;;;;6.25;1.75;;;;;;;13.20;42.96;102742.41;5072752;28;20025;-77
2021/01/05 04:02:44;;;;;;;11.23;2.95;;;;;;;13.43;42.60;102732.66;5072814;28;20378;-77
2021/01/05 04:05:12;;;;;;;11.10;2.53;;;;;;;13.53;42.48;102727.13;5072646;28;20017;-77
2021/01/05 04:07:38;;;;;;;8.93;2.33;;;;;;;13.47;42.70;102732.94;5054818;28;20443;-77
2021/01/05 04:10:05;;;;;;;8.50;1.53;;;;;;;13.42;42.89;102732.94;5072841;28;20063;-77
2021/01/05 04:12:31;;;;;;;4.05;1.70;;;;;;;13.28;43.13;102740.97;5072498;28;20028;-77
2021/01/05 04:14:57;;;;;;;6.13;1.67;;;;;;;13.39;42.86;102736.28;5072359;28;20040;-77
2021/01/05 04:17:23;;;;;;;9.27;2.03;;;;;;;12.57;44.51;102742.06;5072492;28;20037;-77
2021/01/05 04:19:48;;;;;;;8.15;2.08;;;;;;;12.53;43.57;102743.69;5072560;28;20028;-77
2021/01/05 04:22:14;;;;;;;3.13;1.10;;;;;;;12.43;43.27;102747.28;5072610;28;20024;-77
2021/01/05 04:24:39;;;;;;;4.82;1.05;;;;;;;12.75;42.80;102726.91;5072783;28;20028;-77
2021/01/05 04:27:05;;;;;;;7.05;1.60;;;;;;;12.55;43.26;102751.66;5072513;28;20112;-77
2021/01/05 04:29:31;;;;;;;8.55;2.20;;;;;;;12.80;43.34;102756.25;5072437;28;20384;-77
2021/01/05 04:31:56;;;;;;;18.65;3.10;;;;;;;12.73;44.13;102749.13;5072112;28;20029;-77
2021/01/05 04:34:22;;;;;;;14.38;2.75;;;;;;;12.78;44.04;102757.38;5072387;28;20032;-77
2021/01/05 04:36:47;;;;;;;19.70;2.92;;;;;;;12.98;43.14;102761.13;5072391;28;20053;-77
2021/01/05 04:39:13;;;;;;;7.13;1.67;;;;;;;12.60;43.91;102752.44;5072044;28;20049;-77
2021/01/05 04:42:12;;;;;;;8.30;2.03;;;;;;;12.96;43.29;102744.13;5072328;28;20032;-77
2021/01/05 04:44:56;;;;;;;9.48;2.05;;;;;;;12.81;43.87;102731.28;5072496;28;20024;-77
2021/01/05 04:47:25;;;;;;;5.30;1.50;;;;;;;12.88;43.78;102728.25;5072278;28;20020;-77
2021/01/05 04:50:10;;;;;;;6.90;1.70;;;;;;;13.07;43.16;102729.25;5072374;28;20038;-77
2021/01/05 04:52:55;;;;;;;8.20;1.90;;;;;;;13.16;43.21;102735.81;5072150;28;20093;-77
2021/01/05 04:55:42;;;;;;;9.57;3.10;;;;;;;12.90;43.78;102737.00;5072303;28;20066;-77
2021/01/05 04:58:33;;;;;;;13.05;1.92;;;;;;;13.12;43.12;102734.72;5072181;28;20024;-77
2021/01/05 05:01:14;;;;;;;6.72;1.45;;;;;;;13.10;43.36;102725.97;5072039;28;20021;-77
2021/01/05 05:03:59;;;;;;;5.22;1.60;;;;;;;13.33;42.85;102717.06;5072178;28;20137;-78
2021/01/05 05:06:33;;;;;;;8.45;2.22;;;;;;;13.54;42.52;102717.78;5071979;28;20436;-77
2021/01/05 05:09:22;;;;;;;9.18;2.38;;;;;;;13.57;42.37;102721.88;5072132;28;20423;-77
2021/01/05 05:12:13;;;;;;;9.90;2.35;;;;;;;13.68;42.31;102728.94;5071893;28;20024;-77
2021/01/05 05:15:26;;;;;;;6.22;1.55;;;;;;;13.39;43.06;102725.28;5072198;28;20027;-77
2021/01/05 05:18:10;;;;;;;7.40;1.60;;;;;;;13.26;43.48;102745.94;5058874;28;20090;-77
2021/01/05 05:21:00;;;;;;;10.93;1.98;;;;;;;13.29;43.81;102735.22;5072075;28;20104;-77
2021/01/05 05:23:26;;;;;;;6.18;1.67;;;;;;;12.61;45.12;102739.56;5071750;28;20029;-77
2021/01/05 05:26:17;;;;;;;6.00;2.28;;;;;;;12.14;46.22;102741.56;5053847;28;20040;-77
2021/01/05 05:28:58;;;;;;;4.80;1.88;;;;;;;12.81;43.80;102735.94;5062690;28;20036;-77
2021/01/05 05:31:27;;;;;;;6.03;1.85;;;;;;;13.11;43.45;102726.78;5053957;28;20020;-77
2021/01/05 05:33:58;;;;;;;9.75;2.88;;;;;;;13.35;42.65;102727.75;5071893;28;20151;-77
2021/01/05 05:36:36;;;;;;;8.25;3.00;;;;;;;13.56;42.50;102725.72;5054035;28;20027;-77
2021/01/05 05:39:17;;;;;;;10.13;3.80;;;;;;;13.52;42.55;102724.63;5039163;28;20056;-77
2021/01/05 05:41:56;;;;;;;15.23;3.15;;;;;;;13.52;42.71;102727.38;5031987;28;20575;-77
2021/01/05 05:44:38;;;;;;;13.10;4.03;;;;;;;13.58;42.54;102721.56;5034205;28;20044;-77
2021/01/05 05:47:20;;;;;;;13.43;3.47;;;;;;;13.61;42.41;102722.94;5033918;28;20026;-76
2021/01/05 05:50:22;;;;;;;16.02;5.05;;;;;;;13.20;43.14;102717.69;5035383;28;20037;-76
2021/01/05 05:53:26;;;;;;;16.85;3.55;;;;;;;13.53;42.89;102724.38;5033976;28;20033;-76
2021/01/05 05:56:02;;;;;;;13.15;3.35;;;;;;;12.15;45.69;102721.28;5033173;28;20260;-75
2021/01/05 05:58:34;;;;;;;11.50;3.03;;;;;;;12.60;45.03;102744.22;5035247;28;20025;-76
2021/01/05 06:01:03;;;;;;;8.15;1.80;;;;;;;12.40;45.24;102744.28;5033923;28;20112;-76
2021/01/05 06:03:29;;;;;;;6.13;1.52;;;;;;;11.66;46.42;102753.84;5033781;28;20029;-76
2021/01/05 06:05:55;;;;;;;5.57;2.63;;;;;;;11.67;46.76;102747.25;5034892;28;20117;-76
2021/01/05 06:08:23;;;;;;;8.43;2.28;;;;;;;12.62;45.06;102749.44;5034533;28;20127;-76
2021/01/05 06:10:51;;;;;;;9.55;2.22;;;;;;;12.46;45.76;102745.91;5033238;28;20408;-76
2021/01/05 06:13:16;;;;;;;7.25;1.65;;;;;;;12.68;44.90;102754.63;5034927;28;20083;-77
2021/01/05 06:15:42;;;;;;;7.80;2.40;;;;;;;12.60;45.52;102746.97;5034840;28;20037;-77
2021/01/05 06:18:11;;;;;;;11.48;2.92;;;;;;;12.96;44.84;102744.94;5034756;28;20104;-77
2021/01/05 06:20:37;;;;;;;9.82;2.63;;;;;;;13.09;44.50;102739.97;5033455;28;20148;-77
2021/01/05 06:23:03;;;;;;;11.40;3.28;;;;;;;13.13;44.40;102738.28;5034753;28;20483;-77
2021/01/05 06:25:29;;;;;;;7.25;2.70;;;;;;;13.40;43.47;102729.69;5034737;28;20017;-77
2021/01/05 06:27:54;;;;;;;13.68;3.28;;;;;;;12.87;44.26;102756.78;5034684;28;20032;-77
2021/01/05 06:30:20;;;;;;;17.67;3.25;;;;;;;13.18;43.84;102739.09;5034693;28;20033;-77
2021/01/05 06:32:46;;;;;;;6.47;2.63;;;;;;;13.13;43.66;102741.84;5034457;28;20134;-78
2021/01/05 06:35:13;;;;;;;7.90;2.70;;;;;;;13.03;43.77;102739.97;5034419;28;20034;-77
2021/01/05 06:37:40;;;;;;;8.18;3.05;;;;;;;12.52;44.69;102750.28;5034565;28;20506;-77
2021/01/05 06:40:07;;;;;;;9.35;3.28;;;;;;;12.62;44.51;102753.03;5074125;28;20115;-76
2021/01/05 06:42:32;;;;;;;7.88;2.28;;;;;;;12.77;44.40;102752.97;5074231;28;20031;-77
2021/01/05 06:44:58;;;;;;;12.10;2.80;;;;;;;12.63;44.34;102757.41;5074343;28;20017;-78
2021/01/05 06:47:23;;;;;;;8.40;2.95;;;;;;;12.79;44.09;102763.66;5074256;28;20033;-77
2021/01/05 06:49:49;;;;;;;11.35;2.97;;;;;;;12.45;44.84;102760.72;5074079;28;20024;-77
2021/01/05 06:52:15;;;;;;;10.10;3.03;;;;;;;12.68;45.05;102760.13;5073985;28;20052;-77
2021/01/05 06:54:40;;;;;;;10.27;2.90;;;;;;;12.28;45.95;102762.94;5073893;28;20027;-77
2021/01/05 06:57:06;;;;;;;12.15;3.05;;;;;;;12.72;44.80;102763.13;5056145;28;20028;-77
2021/01/05 06:59:31;;;;;;;12.65;3.20;;;;;;;12.97;44.30;102756.75;5073919;28;20037;-77
2021/01/05 07:02:00;;;;;;;7.03;1.90;;;;;;;12.81;44.37;102746.91;5073938;28;20099;-77
2021/01/05 07:04:26;;;;;;;8.00;2.45;;;;;;;13.05;43.78;102762.47;5073854;28;20035;-77
2021/01/05 07:06:53;;;;;;;6.70;2.70;;;;;;;12.73;44.59;102773.00;5073786;28;20031;-76
2021/01/05 07:09:21;;;;;;;10.68;3.17;;;;;;;12.46;45.32;102773.31;5055814;28;20020;-76
2021/01/05 07:11:47;;;;;;;5.60;2.50;;;;;;;12.77;44.24;102777.66;5073577;28;20111;-78
2021/01/05 07:14:14;;;;;;;10.40;3.08;;;;;;;12.64;44.50;102763.72;5073616;28;20108;-76
2021/01/05 07:16:40;;;;;;;14.00;3.55;;;;;;;11.94;46.41;102767.06;5073647;28;20117;-76
2021/01/05 07:19:05;;;;;;;9.70;2.58;;;;;;;12.16;45.81;102768.69;5073453;28;20049;-77
2021/01/05 07:21:31;;;;;;;16.08;3.17;;;;;;;12.16;45.93;102769.50;5073236;28;20368;-76
2021/01/05 07:23:57;;;;;;;5.90;2.67;;;;;;;12.21;46.07;102761.28;5073380;28;20501;-75
2021/01/05 07:26:22;;;;;;;13.43;4.00;;;;;;;12.38;45.91;102761.00;5073287;28;20367;-76
2021/01/05 07:28:48;;;;;;;6.43;1.93;;;;;;;12.45;45.34;102760.72;5073362;28;20035;-76
2021/01/05 07:31:13;;;;;;;7.30;1.90;;;;;;;12.55;45.05;102759.91;5073215;28;20051;-76
2021/01/05 07:33:40;;;;;;;8.40;2.92;;;;;;;12.66;44.96;102764.25;5073036;28;20036;-76
2021/01/05 07:36:09;;;;;;;8.10;2.00;;;;;;;12.52;45.17;102766.72;5073226;28;20052;-75
2021/01/05 07:38:35;;;;;;;10.55;2.28;;;;;;;12.51;44.58;102762.34;5072985;28;20056;-76
2021/01/05 07:41:01;;;;;;;6.57;1.85;;;;;;;12.61;44.26;102765.06;5073026;28;20407;-76
2021/01/05 07:43:26;;;;;;;14.50;4.85;;;;;;;12.91;43.42;102774.31;5072829;28;20040;-76
2021/01/05 07:45:52;;;;;;;19.35;2.30;;;;;;;12.70;43.88;102765.34;5072808;28;20028;-76
2021/01/05 07:48:18;;;;;;;15.63;3.65;;;;;;;12.85;43.33;102769.97;5055211;28;20513;-75
2021/01/05 07:50:43;;;;;;;4.47;1.80;;;;;;;13.01;42.82;102766.88;5072991;28;20117;-76
2021/01/05 07:53:09;;;;;;;5.32;2.30;;;;;;;12.80;43.24;102770.78;5072934;28;20108;-76
2021/01/05 07:55:35;;;;;;;11.40;3.13;;;;;;;12.88;43.29;102774.88;5072620;28;20033;-76
2021/01/05 07:58:00;;;;;;;16.80;3.53;;;;;;;13.50;41.43;102776.28;5072832;28;20023;-76
2021/01/05 08:00:29;;;;;;;7.68;2.38;;;;;;;13.53;41.32;102762.00;5072799;28;20031;-75
2021/01/05 08:02:56;;;;;;;7.97;2.25;;;;;;;13.53;41.02;102771.06;5073414;28;20028;-77
2021/01/05 08:05:25;;;;;;;10.18;1.95;;;;;;;13.49;40.82;102769.97;5054178;28;20374;-77
2021/01/05 08:07:52;;;;;;;5.17;1.87;;;;;;;13.43;40.87;102775.78;5052937;28;20054;-77
2021/01/05 08:10:25;;;;;;;6.30;2.30;;;;;;;13.47;40.99;102774.13;5075035;28;20095;-78
2021/01/05 08:12:51;;;;;;;5.47;1.85;;;;;;;13.58;40.77;102775.69;5072400;28;20097;-77
2021/01/05 08:15:20;;;;;;;6.53;2.90;;;;;;;13.36;41.19;102787.06;5054572;28;20074;-77
2021/01/05 08:17:46;;;;;;;3.55;1.65;;;;;;;13.20;41.76;102780.00;5072441;28;20031;-76
2021/01/05 08:20:15;;;;;;;5.65;1.75;;;;;;;13.75;40.39;102775.31;5072768;28;20516;-83
2021/01/05 08:22:41;;;;;;;4.63;1.80;;;;;;;13.66;40.56;102777.84;5073096;28;20124;-84
2021/01/05 08:25:07;;;;;;;2.83;1.90;;;;;;;13.46;40.81;102776.06;5055535;28;20107;-83
2021/01/05 08:27:33;;;;;;;7.68;2.60;;;;;;;13.53;40.48;102784.81;5055035;28;20030;-85
2021/01/05 08:29:58;;;;;;;5.20;1.90;;;;;;;13.40;40.62;102781.84;5065799;28;20028;-85
2021/01/05 08:32:24;;;;;;;5.32;2.08;;;;;;;12.99;41.33;102784.72;5075076;28;20486;-84
2021/01/05 08:34:50;;;;;;;3.67;1.90;;;;;;;12.97;41.29;102789.66;5074922;28;20028;-80
2021/01/05 08:37:15;;;;;;;5.28;2.13;;;;;;;12.89;41.43;102788.31;5075050;28;20086;-83
2021/01/05 08:39:42;;;;;;;5.35;2.75;;;;;;;12.84;41.36;102790.25;5075105;28;20123;-86
2021/01/05 08:42:08;;;;;;;7.72;6.18;;;;;;;12.77;41.59;102791.38;5074917;28;20120;-84
2021/01/05 08:44:34;;;;;;;9.50;4.07;;;;;;;12.64;41.33;102791.94;5093133;28;20442;-84
2021/01/05 08:47:01;;;;;;;6.03;3.45;;;;;;;12.74;41.55;102789.19;5092935;28;20077;-83
2021/01/05 08:49:28;;;;;;;7.22;2.90;;;;;;;12.62;41.61;102793.31;5093214;28;20031;-84
2021/01/05 08:51:55;;;;;;;10.88;5.72;;;;;;;12.59;41.55;102802.91;5092835;28;20051;-86
2021/01/05 08:54:21;;;;;;;7.57;4.93;;;;;;;12.48;41.58;102793.91;5091571;28;20103;-82
2021/01/05 08:56:55;;;;;;;5.72;3.05;;;;;;;12.37;41.64;102786.75;5086856;28;20448;-82
2021/01/05 08:59:21;;;;;;;9.83;4.67;;;;;;;12.21;42.00;102802.41;5074318;28;20028;-84
2021/01/05 09:01:47;;;;;;;6.30;3.78;;;;;;;12.43;41.57;102802.13;5074501;28;20032;-82
2021/01/05 09:04:13;;;;;;;7.47;2.63;;;;;;;12.22;41.95;102801.28;5089790;28;20075;-80
2021/01/05 09:06:38;;;;;;;9.27;3.60;;;;;;;12.26;42.00;102789.81;5091878;28;20028;-81
2021/01/05 09:09:04;;;;;;;5.82;4.57;;;;;;;12.25;41.92;102788.97;5090000;28;20466;-80
2021/01/05 09:11:29;;;;;;;9.02;6.35;;;;;;;12.05;42.58;102795.25;5074095;28;20174;-86
2021/01/05 09:13:55;;;;;;;13.80;10.50;;;;;;;11.96;42.74;102793.34;5073515;28;20020;-82
2021/01/05 09:16:28;;;;;;;27.90;22.48;;;;;;;11.91;42.77;102797.72;5073783;28;20386;-83
2021/01/05 09:18:54;;;;;;;31.75;22.63;;;;;;;12.13;42.64;102793.91;5095971;28;20386;-83
2021/01/05 09:21:24;;;;;;;5.40;4.87;;;;;;;11.91;43.12;102792.22;5074058;28;20035;-83
2021/01/05 09:23:55;;;;;;;8.80;7.40;;;;;;;11.86;43.20;102778.56;5072453;28;20523;-82
2021/01/05 09:26:24;;;;;;;21.87;17.33;;;;;;;11.96;43.29;102793.34;5075751;28;20024;-83
2021/01/05 09:28:50;;;;;;;20.42;12.88;;;;;;;12.08;43.02;102793.88;5077046;28;20055;-81
2021/01/05 09:31:16;;;;;;;5.15;3.72;;;;;;;12.38;42.58;102796.63;5077443;28;20086;-83
2021/01/05 09:33:42;;;;;;;17.17;12.60;;;;;;;12.37;42.54;102796.91;5077638;28;20054;-83
2021/01/05 09:36:09;;;;;;;11.35;9.00;;;;;;;12.49;42.25;102798.28;5075983;28;20036;-81
2021/01/05 09:38:37;;;;;;;13.93;8.27;;;;;;;12.64;41.54;102791.94;5094427;28;20044;-82
2021/01/05 09:41:02;;;;;;;34.63;30.47;;;;;;;12.68;41.73;102795.78;5075492;28;20032;-84
2021/01/05 09:43:30;;;;;;;18.40;12.47;;;;;;;12.62;41.75;102793.31;5096425;28;20032;-86
2021/01/05 09:45:56;;;;;;;21.92;12.80;;;;;;;12.73;41.90;102783.97;5077003;28;20020;-83
2021/01/05 09:48:21;;;;;;;9.17;5.33;;;;;;;12.52;42.42;102785.94;5077964;28;20028;-90
2021/01/05 09:50:47;;;;;;;8.60;6.22;;;;;;;12.67;42.18;102780.41;5077315;28;20102;-89
2021/01/05 09:53:14;;;;;;;18.63;14.85;;;;;;;12.64;42.08;102783.72;5079616;28;20032;-91
2021/01/05 09:55:40;;;;;;;8.33;5.37;;;;;;;12.68;42.16;102787.53;5077984;28;20094;-83
2021/01/05 09:58:07;;;;;;;17.07;10.67;;;;;;;12.74;42.29;102788.34;5051503;28;20034;-84
2021/01/05 10:00:34;;;;;;;21.37;13.00;;;;;;;12.61;42.68;102787.00;5061231;28;20030;-85
2021/01/05 10:03:00;;;;;;;20.97;17.73;;;;;;;12.97;42.06;102793.22;5061783;28;20035;-83
2021/01/05 10:05:26;;;;;;;5.25;2.58;;;;;;;12.96;42.14;102797.09;5069862;28;20019;-83
2021/01/05 10:07:51;;;;;;;23.73;18.73;;;;;;;12.79;42.50;102793.84;5077243;28;20031;-84
2021/01/05 10:10:26;;;;;;;19.90;12.85;;;;;;;12.90;42.16;102795.44;5094675;28;20024;-85
2021/01/05 10:12:53;;;;;;;15.30;12.97;;;;;;;13.04;41.92;102792.94;5077490;28;20028;-92
2021/01/05 10:15:21;;;;;;;9.02;6.30;;;;;;;12.98;42.29;102796.78;5077434;28;20028;-83
2021/01/05 10:17:47;;;;;;;9.60;8.20;;;;;;;13.13;41.91;102796.75;5095170;28;20032;-83
2021/01/05 10:20:16;;;;;;;7.93;5.05;;;;;;;13.09;41.84;102792.13;5094878;28;20024;-84
2021/01/05 10:22:41;;;;;;;5.93;4.03;;;;;;;13.27;41.40;102800.56;5076162;28;20028;-83
2021/01/05 10:25:09;;;;;;;12.18;7.85;;;;;;;13.02;41.74;102800.63;5076197;28;20036;-87
2021/01/05 10:27:35;;;;;;;11.43;8.13;;;;;;;13.02;42.31;102803.38;5075742;28;20056;-84
2021/01/05 10:30:01;;;;;;;17.23;10.07;;;;;;;13.03;42.04;102800.34;5076229;28;20043;-86
2021/01/05 10:32:26;;;;;;;16.73;11.40;;;;;;;13.17;41.73;102800.59;5076156;28;20048;-83
2021/01/05 10:34:52;;;;;;;10.18;9.18;;;;;;;12.88;42.21;102794.91;5077459;28;20024;-86
2021/01/05 10:37:17;;;;;;;6.30;4.55;;;;;;;13.10;41.77;102800.06;5094946;28;20024;-86
2021/01/05 10:39:44;;;;;;;5.35;3.75;;;;;;;13.18;41.70;102804.16;5076435;28;20036;-85
2021/01/05 10:42:10;;;;;;;11.57;4.75;;;;;;;13.29;41.90;102795.59;5095148;28;20020;-83
2021/01/05 10:44:35;;;;;;;7.53;6.20;;;;;;;13.17;42.14;102802.50;5077411;28;20028;-84
2021/01/05 10:47:05;;;;;;;13.98;12.55;;;;;;;13.10;42.24;102793.75;5076992;28;20020;-85
2021/01/05 10:49:31;;;;;;;18.38;16.40;;;;;;;13.16;41.94;102793.47;5066566;28;20024;-87
2021/01/05 10:51:59;;;;;;;7.40;5.40;;;;;;;13.02;42.60;102792.41;5079036;28;20089;-89
2021/01/05 10:54:27;;;;;;;4.07;3.20;;;;;;;13.10;42.62;102786.34;5090621;28;20028;-90
2021/01/05 10:57:02;;;;;;;7.05;4.00;;;;;;;13.34;41.99;102775.56;5095006;28;20020;-90
2021/01/05 10:59:28;;;;;;;6.90;2.78;;;;;;;13.65;41.32;102784.44;5095249;28;20378;-85
2021/01/05 11:01:56;;;;;;;8.43;4.22;;;;;;;13.71;41.38;102786.06;5075848;28;20032;-85
2021/01/05 11:04:23;;;;;;;9.02;2.40;;;;;;;12.83;45.00;102783.13;5062274;28;20390;-84
2021/01/05 11:06:55;;;;;;;5.85;2.30;;;;;;;12.38;47.17;102788.41;5051351;28;20055;-85
2021/01/05 11:09:22;;;;;;;7.80;2.08;;;;;;;12.75;46.19;102777.09;5059877;28;20177;-87
2021/01/05 11:11:54;;;;;;;6.85;2.05;;;;;;;12.44;47.11;102770.03;5058106;28;20035;-90
2021/01/05 11:14:19;;;;;;;17.25;4.40;;;;;;;12.67;46.31;102772.19;5053011;28;20490;-88
2021/01/05 11:16:48;;;;;;;11.80;2.05;;;;;;;12.44;47.12;102775.53;5076573;28;20028;-91
2021/01/05 11:19:14;;;;;;;7.30;2.50;;;;;;;12.36;47.71;102778.81;5077267;28;20031;-91
2021/01/05 11:21:40;;;;;;;9.95;2.60;;;;;;;12.39;47.93;102772.78;5094922;28;20036;-90
2021/01/05 11:24:07;;;;;;;6.10;1.77;;;;;;;12.41;47.42;102765.94;5074454;28;20027;-83
2021/01/05 11:26:35;;;;;;;3.42;1.23;;;;;;;12.37;47.13;102764.84;5091038;28;20028;-85
2021/01/05 11:29:03;;;;;;;6.40;1.95;;;;;;;11.94;48.14;102761.56;5078597;28;20028;-93
2021/01/05 11:31:28;;;;;;;5.90;1.00;;;;;;;12.38;45.74;102768.38;5075949;28;20554;-90
2021/01/05 11:33:54;;;;;;;6.40;1.25;;;;;;;12.86;44.33;102777.09;5077421;28;20143;-84
2021/01/05 11:36:24;;;;;;;5.25;1.52;;;;;;;13.09;44.13;102764.66;5076616;28;20031;-78
2021/01/05 11:38:51;;;;;;;12.07;1.92;;;;;;;13.01;45.26;102755.91;5093053;28;20062;-85